Time;durP1;ratioP1;P1;durP2;ratioP2;P2;SDS_P1;SDS_P2;PMS_P1;PMS_P2;Temp;Humidity;BMP_temperature;BMP_pressure;BME280_temperature;BME280_humidity;BME280_pressure;Samples;Min_cycle;Max_cycle;Signal;HPM_P1;HPM_P2
2023/07/18 00:00:14;;;;;;;4.45;2.20;;;;;;;12.32;100.00;101346.94;689981;28;1544;-63
2023/07/18 00:00:38;;;;;;;4.47;2.10;;;;;;;12.25;100.00;101346.09;689935;28;1973;-62
2023/07/18 00:00:58;;;;;;;4.70;2.25;;;;;;;12.22;100.00;101356.56;690864;28;1038;-62
2023/07/18 00:01:20;;;;;;;5.43;2.37;;;;;;;12.23;100.00;101347.84;688963;28;4485;-62
2023/07/18 00:01:40;;;;;;;4.78;2.28;;;;;;;12.24;100.00;101348.72;690429;28;778;-62
2023/07/18 00:02:00;;;;;;;4.63;2.10;;;;;;;12.26;100.00;101346.97;689694;28;1476;-62
2023/07/18 00:02:21;;;;;;;4.63;2.10;;;;;;;12.25;100.00;101348.72;690420;28;870;-62
2023/07/18 00:02:44;;;;;;;4.70;2.25;;;;;;;12.25;100.00;101351.34;690359;28;1232;-62
2023/07/18 00:03:05;;;;;;;4.38;2.20;;;;;;;12.30;100.00;101355.72;689855;28;1480;-62
2023/07/18 00:03:28;;;;;;;4.68;2.20;;;;;;;12.32;100.00;101346.94;691143;28;987;-62
2023/07/18 00:03:48;;;;;;;4.20;2.10;;;;;;;12.31;100.00;101355.72;690197;28;975;-62
2023/07/18 00:04:09;;;;;;;3.80;2.10;;;;;;;12.30;100.00;101353.09;689429;28;4586;-61
2023/07/18 00:04:29;;;;;;;4.47;2.00;;;;;;;12.31;100.00;101354.81;690617;28;1371;-62
2023/07/18 00:04:50;;;;;;;4.65;2.05;;;;;;;12.31;100.00;101357.44;690535;28;947;-62
2023/07/18 00:05:12;;;;;;;5.77;2.63;;;;;;;12.26;100.00;101358.31;690075;28;1661;-62
2023/07/18 00:05:34;;;;;;;5.25;2.35;;;;;;;12.24;100.00;101357.47;691253;28;999;-62
2023/07/18 00:05:54;;;;;;;8.90;2.40;;;;;;;12.25;100.00;101358.31;690059;28;1050;-62
2023/07/18 00:06:17;;;;;;;4.72;2.30;;;;;;;12.23;100.00;101358.31;689805;28;1523;-62
2023/07/18 00:06:41;;;;;;;5.25;2.30;;;;;;;12.23;100.00;101352.22;690825;28;825;-62
2023/07/18 00:07:02;;;;;;;4.60;2.30;;;;;;;12.19;100.00;101351.34;689430;28;1515;-62
2023/07/18 00:07:23;;;;;;;4.20;2.30;;;;;;;12.23;100.00;101352.22;687634;28;4526;-62
2023/07/18 00:07:44;;;;;;;4.27;2.10;;;;;;;12.24;100.00;101352.22;687651;28;1384;-63
2023/07/18 00:08:04;;;;;;;5.55;2.33;;;;;;;12.27;100.00;101356.59;689207;28;1468;-62
2023/07/18 00:08:25;;;;;;;5.28;2.47;;;;;;;12.25;100.00;101351.34;690744;28;1165;-61
2023/07/18 00:08:45;;;;;;;5.27;2.47;;;;;;;12.30;100.00;101350.47;690971;28;835;-62
2023/07/18 00:09:06;;;;;;;4.90;2.20;;;;;;;12.29;100.00;101351.34;689223;28;1440;-62
2023/07/18 00:09:26;;;;;;;4.33;2.13;;;;;;;12.25;100.00;101351.34;690938;28;983;-62
2023/07/18 00:09:46;;;;;;;4.38;2.20;;;;;;;12.31;100.00;101352.19;691254;28;812;-62
2023/07/18 00:10:08;;;;;;;4.60;2.27;;;;;;;12.27;100.00;101354.81;687656;28;1468;-62
2023/07/18 00:10:29;;;;;;;4.75;2.40;;;;;;;12.26;100.00;101353.06;690269;28;5222;-61
2023/07/18 00:10:49;;;;;;;5.50;2.30;;;;;;;12.32;100.00;101354.81;691214;28;995;-62
2023/07/18 00:11:10;;;;;;;4.80;2.27;;;;;;;12.32;100.00;101356.56;689356;28;1425;-62
2023/07/18 00:11:30;;;;;;;4.43;2.10;;;;;;;12.27;100.00;101352.22;691184;28;916;-62
2023/07/18 00:11:50;;;;;;;4.88;2.40;;;;;;;12.25;100.00;101358.31;690989;28;1040;-62
2023/07/18 00:12:11;;;;;;;4.90;2.40;;;;;;;12.26;100.00;101352.22;689604;28;1547;-62
2023/07/18 00:12:31;;;;;;;4.40;2.20;;;;;;;12.27;100.00;101348.72;690849;28;857;-62
2023/07/18 00:12:51;;;;;;;5.33;2.70;;;;;;;12.29;100.00;101349.56;690937;28;1062;-62
2023/07/18 00:13:12;;;;;;;4.43;2.27;;;;;;;12.31;100.00;101357.44;688966;28;4297;-61
2023/07/18 00:13:32;;;;;;;4.68;2.28;;;;;;;12.31;100.00;101352.19;690641;28;933;-62
2023/07/18 00:13:52;;;;;;;4.80;2.30;;;;;;;12.32;100.00;101357.44;690974;28;877;-62
2023/07/18 00:14:14;;;;;;;4.40;2.27;;;;;;;12.30;100.00;101353.09;689252;28;1477;-62
2023/07/18 00:14:35;;;;;;;4.75;2.33;;;;;;;12.32;100.00;101359.19;690465;28;987;-62
2023/07/18 00:14:55;;;;;;;4.47;2.30;;;;;;;12.37;100.00;101352.22;690933;28;889;-62
2023/07/18 00:15:16;;;;;;;4.67;2.33;;;;;;;12.38;100.00;101353.97;689443;28;1512;-62
2023/07/18 00:15:37;;;;;;;5.38;2.70;;;;;;;12.36;100.00;101355.69;688174;28;1114;-62
2023/07/18 00:15:57;;;;;;;5.50;2.70;;;;;;;12.37;100.00;101357.44;688230;28;999;-62
2023/07/18 00:16:18;;;;;;;4.55;2.38;;;;;;;12.37;100.00;101355.69;688787;28;4522;-62
2023/07/18 00:16:38;;;;;;;4.30;2.20;;;;;;;12.37;100.00;101358.31;690675;28;849;-62
2023/07/18 00:16:58;;;;;;;4.23;2.17;;;;;;;12.37;100.00;101360.06;690631;28;845;-61
2023/07/18 00:17:19;;;;;;;4.53;2.30;;;;;;;12.37;100.00;101354.84;689234;28;1563;-62
2023/07/18 00:17:41;;;;;;;4.53;2.40;;;;;;;12.40;100.00;101360.06;690885;28;924;-62
2023/07/18 00:18:01;;;;;;;4.45;2.30;;;;;;;12.35;100.00;101356.56;689414;28;1523;-62
2023/07/18 00:18:22;;;;;;;4.47;2.60;;;;;;;12.32;100.00;101361.81;690513;28;924;-62
2023/07/18 00:18:43;;;;;;;4.15;2.30;;;;;;;12.33;100.00;101364.44;690914;28;1008;-61
2023/07/18 00:19:03;;;;;;;4.87;2.23;;;;;;;12.35;100.00;101365.31;690047;28;1476;-61
2023/07/18 00:19:24;;;;;;;4.78;2.58;;;;;;;12.36;100.00;101363.56;690284;28;4367;-62
2023/07/18 00:19:44;;;;;;;5.05;2.25;;;;;;;12.40;100.00;101363.53;690077;28;2979;-62
2023/07/18 00:20:10;;;;;;;4.97;2.13;;;;;;;12.43;100.00;101360.06;689804;28;1481;-62
2023/07/18 00:20:30;;;;;;;5.00;2.28;;;;;;;12.41;100.00;101367.91;690261;28;1965;-62
2023/07/18 00:20:51;;;;;;;4.35;2.20;;;;;;;12.42;100.00;101368.81;690954;28;920;-62
2023/07/18 00:21:12;;;;;;;4.53;2.13;;;;;;;12.41;100.00;101370.53;689864;28;1429;-62
2023/07/18 00:21:32;;;;;;;5.07;2.47;;;;;;;12.41;100.00;101362.69;690404;28;1210;-62
2023/07/18 00:21:53;;;;;;;4.87;2.60;;;;;;;12.41;100.00;101369.69;691110;28;1241;-62
2023/07/18 00:22:13;;;;;;;4.85;2.50;;;;;;;12.37;100.00;101370.56;689629;28;4501;-62
2023/07/18 00:22:33;;;;;;;4.03;2.03;;;;;;;12.38;100.00;101362.69;690589;28;899;-62
2023/07/18 00:22:54;;;;;;;4.57;2.13;;;;;;;12.41;100.00;101361.81;690284;28;1050;-62
2023/07/18 00:23:15;;;;;;;5.97;2.40;;;;;;;12.36;100.00;101363.56;689541;28;2129;-62
2023/07/18 00:23:36;;;;;;;5.65;2.40;;;;;;;12.32;100.00;101377.53;690627;28;952;-62
2023/07/18 00:23:58;;;;;;;5.33;2.40;;;;;;;12.29;100.00;101373.19;690193;28;794;-62
2023/07/18 00:24:18;;;;;;;5.80;2.58;;;;;;;12.28;100.00;101360.97;689640;28;1495;-63
2023/07/18 00:24:41;;;;;;;6.30;2.50;;;;;;;12.32;100.00;101364.44;690562;28;1050;-62
2023/07/18 00:25:04;;;;;;;5.13;2.42;;;;;;;12.33;100.00;101361.81;689878;28;1457;-62
2023/07/18 00:25:25;;;;;;;4.75;2.30;;;;;;;12.33;100.00;101369.69;690501;28;4351;-62
2023/07/18 00:25:46;;;;;;;4.65;2.30;;;;;;;12.35;100.00;101367.94;690313;28;972;-62
2023/07/18 00:26:06;;;;;;;4.73;2.20;;;;;;;12.33;100.00;101367.06;690142;28;1437;-62
2023/07/18 00:26:26;;;;;;;4.93;2.30;;;;;;;12.32;100.00;101364.44;691101;28;987;-62
2023/07/18 00:26:47;;;;;;;5.83;2.63;;;;;;;12.35;100.00;101367.06;690595;28;813;-62
2023/07/18 00:27:07;;;;;;;6.00;2.63;;;;;;;12.33;100.00;101367.06;689481;28;1603;-62
2023/07/18 00:27:28;;;;;;;4.60;2.47;;;;;;;12.27;100.00;101365.31;690955;28;876;-62
2023/07/18 00:27:50;;;;;;;4.30;2.30;;;;;;;12.26;100.00;101362.69;690205;28;903;-62
2023/07/18 00:28:10;;;;;;;4.57;2.17;;;;;;;12.29;100.00;101357.44;688433;28;4460;-61
2023/07/18 00:28:30;;;;;;;4.07;2.13;;;;;;;12.28;100.00;101363.59;687966;28;905;-60
2023/07/18 00:28:53;;;;;;;5.20;2.40;;;;;;;12.26;100.00;101355.69;685221;28;1304;-62
2023/07/18 00:29:14;;;;;;;4.93;2.20;;;;;;;12.24;100.00;101369.69;684084;28;1733;-62
2023/07/18 00:29:34;;;;;;;4.73;2.47;;;;;;;12.23;100.00;101366.19;685456;28;838;-62
2023/07/18 00:29:57;;;;;;;5.45;2.58;;;;;;;12.24;100.00;101375.81;684733;28;1284;-62
2023/07/18 00:30:18;;;;;;;4.78;2.30;;;;;;;12.27;100.00;101365.31;685110;28;1419;-62
2023/07/18 00:30:38;;;;;;;4.07;2.25;;;;;;;12.29;100.00;101360.06;689168;28;913;-62
2023/07/18 00:31:02;;;;;;;4.68;2.22;;;;;;;12.27;100.00;101365.31;690113;28;1494;-62
2023/07/18 00:31:23;;;;;;;5.20;2.25;;;;;;;12.27;100.00;101359.22;689661;28;4309;-62
2023/07/18 00:31:43;;;;;;;6.18;2.67;;;;;;;12.28;100.00;101366.22;690906;28;1420;-61
2023/07/18 00:32:04;;;;;;;4.60;2.40;;;;;;;12.28;100.00;101363.59;688967;28;1724;-62
2023/07/18 00:32:24;;;;;;;4.45;2.30;;;;;;;12.26;100.00;101368.81;686069;28;878;-62
2023/07/18 00:32:45;;;;;;;4.80;2.23;;;;;;;12.25;100.00;101360.94;686146;28;971;-62
2023/07/18 00:33:05;;;;;;;4.30;2.05;;;;;;;12.27;100.00;101362.69;681180;28;1491;-63
2023/07/18 00:33:26;;;;;;;4.53;2.20;;;;;;;12.30;100.00;101363.59;682654;29;906;-61
2023/07/18 00:33:47;;;;;;;4.90;2.40;;;;;;;12.29;100.00;101362.69;683568;28;1263;-61
2023/07/18 00:34:07;;;;;;;5.05;2.45;;;;;;;12.29;100.00;101370.56;682768;28;5360;-62
2023/07/18 00:34:28;;;;;;;5.00;2.27;;;;;;;12.27;100.00;101374.94;684590;28;1457;-61
2023/07/18 00:34:49;;;;;;;4.47;2.10;;;;;;;12.25;100.00;101367.06;683053;28;2427;-62
2023/07/18 00:35:14;;;;;;;5.63;2.75;;;;;;;12.30;100.00;101368.81;682938;28;1410;-63
2023/07/18 00:35:34;;;;;;;5.22;2.80;;;;;;;12.31;100.00;101367.94;680964;29;2043;-62
2023/07/18 00:35:55;;;;;;;4.30;2.30;;;;;;;12.29;100.00;101367.06;682603;28;944;-62
2023/07/18 00:36:15;;;;;;;4.87;2.40;;;;;;;12.28;100.00;101368.81;684509;28;1545;-62
2023/07/18 00:36:35;;;;;;;4.93;2.53;;;;;;;12.28;100.00;101363.59;687868;28;1305;-62
2023/07/18 00:36:56;;;;;;;5.40;2.53;;;;;;;12.28;100.00;101366.22;688131;28;1316;-62
2023/07/18 00:37:17;;;;;;;5.37;2.30;;;;;;;12.30;100.00;101366.19;688306;28;4664;-62
2023/07/18 00:37:39;;;;;;;5.45;2.30;;;;;;;12.32;100.00;101361.81;690559;28;975;-62
2023/07/18 00:37:59;;;;;;;4.57;2.13;;;;;;;12.29;100.00;101367.06;690533;28;912;-62
2023/07/18 00:38:20;;;;;;;4.68;2.30;;;;;;;12.25;100.00;101367.06;686876;28;1477;-62
2023/07/18 00:38:40;;;;;;;4.23;2.33;;;;;;;12.24;100.00;101359.22;687968;28;1485;-61
2023/07/18 00:39:03;;;;;;;4.35;2.35;;;;;;;12.21;100.00;101370.56;686532;28;1524;-63
2023/07/18 00:39:23;;;;;;;5.70;2.30;;;;;;;12.18;100.00;101360.06;687482;28;1158;-62
2023/07/18 00:39:44;;;;;;;4.10;2.13;;;;;;;12.18;100.00;101362.69;687712;28;1082;-62
2023/07/18 00:40:10;;;;;;;4.65;2.20;;;;;;;12.19;100.00;101364.44;687879;28;1551;-62
2023/07/18 00:40:31;;;;;;;4.50;2.10;;;;;;;12.20;100.00;101360.09;689853;28;4756;-62
2023/07/18 00:40:51;;;;;;;4.43;1.90;;;;;;;12.20;100.00;101362.72;690594;28;1066;-62
2023/07/18 00:41:11;;;;;;;4.90;2.30;;;;;;;12.16;100.00;101356.59;689753;28;1480;-62
2023/07/18 00:41:33;;;;;;;4.75;2.38;;;;;;;12.17;100.00;101363.59;690407;28;1165;-62
2023/07/18 00:41:53;;;;;;;5.10;2.33;;;;;;;12.17;100.00;101366.22;690521;28;953;-62
2023/07/18 00:42:15;;;;;;;5.50;2.50;;;;;;;12.20;100.00;101365.34;689455;28;5198;-62
2023/07/18 00:42:39;;;;;;;5.27;2.33;;;;;;;12.20;100.00;101355.72;689917;28;998;-62
2023/07/18 00:43:00;;;;;;;5.00;2.42;;;;;;;12.18;100.00;101354.81;690078;28;1235;-62
2023/07/18 00:43:20;;;;;;;4.90;2.47;;;;;;;12.17;100.00;101357.44;686543;28;4392;-62
2023/07/18 00:43:41;;;;;;;4.20;2.30;;;;;;;12.21;100.00;101356.56;687322;28;960;-62
2023/07/18 00:44:02;;;;;;;4.35;2.22;;;;;;;12.18;100.00;101360.06;686880;28;1489;-62
2023/07/18 00:44:23;;;;;;;4.28;2.20;;;;;;;12.18;100.00;101360.06;687042;28;882;-62
2023/07/18 00:44:49;;;;;;;4.88;2.35;;;;;;;12.18;100.00;101352.19;684750;28;968;-62
2023/07/18 00:45:12;;;;;;;4.93;2.42;;;;;;;12.18;100.00;101349.59;685026;28;1597;-62
2023/07/18 00:45:33;;;;;;;4.22;2.22;;;;;;;12.20;100.00;101349.59;687267;28;1292;-62
2023/07/18 00:45:53;;;;;;;4.77;2.20;;;;;;;12.20;100.00;101352.22;686952;28;861;-62
2023/07/18 00:46:15;;;;;;;4.28;2.00;;;;;;;12.21;100.00;101354.84;685245;28;4547;-61
2023/07/18 00:46:35;;;;;;;3.90;2.05;;;;;;;12.25;100.00;101353.06;686558;28;1186;-61
2023/07/18 00:46:56;;;;;;;5.27;2.50;;;;;;;12.20;100.00;101347.84;687540;28;1135;-62
2023/07/18 00:47:17;;;;;;;5.33;2.47;;;;;;;12.15;100.00;101354.84;684192;28;1492;-62
2023/07/18 00:47:40;;;;;;;4.03;2.13;;;;;;;12.20;100.00;101347.84;685397;28;802;-62
2023/07/18 00:48:01;;;;;;;5.13;2.10;;;;;;;12.23;100.00;101354.84;685110;28;897;-62
2023/07/18 00:48:21;;;;;;;5.43;2.20;;;;;;;12.22;100.00;101353.94;687088;28;1453;-62
2023/07/18 00:48:42;;;;;;;4.95;2.13;;;;;;;12.21;100.00;101343.47;686209;28;909;-62
2023/07/18 00:49:02;;;;;;;4.63;2.30;;;;;;;12.22;100.00;101351.31;683663;28;1580;-62
2023/07/18 00:49:23;;;;;;;4.88;2.17;;;;;;;12.24;100.00;101351.34;684859;28;4842;-62
2023/07/18 00:49:45;;;;;;;4.68;2.17;;;;;;;12.23;100.00;101353.09;685652;28;1317;-62
2023/07/18 00:50:08;;;;;;;4.45;2.22;;;;;;;12.24;100.00;101352.22;685842;28;1505;-62
2023/07/18 00:50:28;;;;;;;4.50;2.33;;;;;;;12.24;100.00;101352.22;687528;28;957;-62
2023/07/18 00:50:49;;;;;;;4.40;2.30;;;;;;;12.25;100.00;101346.09;686575;28;1235;-62
2023/07/18 00:51:10;;;;;;;4.13;2.30;;;;;;;12.22;100.00;101346.09;686258;28;1552;-62
2023/07/18 00:51:31;;;;;;;4.75;2.15;;;;;;;12.21;100.00;101351.34;688187;28;1012;-62
2023/07/18 00:51:52;;;;;;;4.85;2.42;;;;;;;12.19;100.00;101346.09;688009;28;1258;-62
2023/07/18 00:52:13;;;;;;;3.97;2.13;;;;;;;12.19;100.00;101340.84;685409;28;4522;-62
2023/07/18 00:52:35;;;;;;;4.22;2.10;;;;;;;12.20;100.00;101341.75;690426;28;1024;-62
2023/07/18 00:52:56;;;;;;;4.63;2.38;;;;;;;12.22;100.00;101350.47;687645;28;1932;-62
2023/07/18 00:53:17;;;;;;;4.40;2.47;;;;;;;12.20;100.00;101337.38;686420;28;1470;-62
2023/07/18 00:53:39;;;;;;;4.05;2.10;;;;;;;12.20;100.00;101342.59;688705;28;866;-62
2023/07/18 00:53:59;;;;;;;4.18;2.30;;;;;;;12.19;100.00;101345.22;690561;28;1022;-62
2023/07/18 00:54:20;;;;;;;4.45;2.50;;;;;;;12.19;100.00;101340.84;688949;28;1487;-62
2023/07/18 00:54:43;;;;;;;4.57;2.30;;;;;;;12.18;100.00;101341.72;687407;28;1262;-62
2023/07/18 00:55:06;;;;;;;5.50;2.20;;;;;;;12.17;100.00;101337.38;684404;28;1549;-62
2023/07/18 00:55:27;;;;;;;4.88;2.28;;;;;;;12.16;100.00;101340.00;684393;28;4306;-62
2023/07/18 00:55:47;;;;;;;4.53;2.35;;;;;;;12.16;100.00;101340.88;685310;28;1059;-62
2023/07/18 00:56:08;;;;;;;4.70;2.17;;;;;;;12.17;100.00;101336.47;686158;28;1460;-62
2023/07/18 00:56:29;;;;;;;5.35;2.45;;;;;;;12.15;100.00;101339.09;689914;28;932;-62
2023/07/18 00:56:49;;;;;;;5.57;2.25;;;;;;;12.14;100.00;101339.97;690989;28;786;-62
2023/07/18 00:57:10;;;;;;;4.17;2.23;;;;;;;12.14;100.00;101339.97;689869;28;1540;-62
2023/07/18 00:57:31;;;;;;;6.22;2.58;;;;;;;12.15;100.00;101333.00;687219;28;1180;-62
2023/07/18 00:57:53;;;;;;;4.60;2.42;;;;;;;12.17;100.00;101342.63;686605;28;2189;-62
2023/07/18 00:58:14;;;;;;;4.10;2.20;;;;;;;12.16;100.00;101335.63;684667;28;4515;-62
2023/07/18 00:58:35;;;;;;;4.20;2.20;;;;;;;12.17;100.00;101340.00;685706;28;2057;-62
2023/07/18 00:58:56;;;;;;;5.13;2.30;;;;;;;12.16;100.00;101335.63;686624;28;838;-62
2023/07/18 00:59:19;;;;;;;5.50;2.42;;;;;;;12.16;100.00;101338.25;687513;28;1484;-63
2023/07/18 00:59:40;;;;;;;5.35;2.50;;;;;;;12.15;100.00;101327.75;690634;28;904;-62
2023/07/18 01:00:00;;;;;;;4.50;2.20;;;;;;;12.15;100.00;101333.00;690572;28;1364;-62
2023/07/18 01:00:22;;;;;;;4.88;2.30;;;;;;;12.15;100.00;101333.88;689399;28;1547;-62
2023/07/18 01:00:43;;;;;;;4.55;2.28;;;;;;;12.16;100.00;101334.75;687637;28;893;-62
2023/07/18 01:01:04;;;;;;;4.95;2.40;;;;;;;12.18;100.00;101333.00;686772;28;1618;-62
2023/07/18 01:01:25;;;;;;;4.88;2.33;;;;;;;12.17;100.00;101333.84;687342;28;4527;-62
2023/07/18 01:01:46;;;;;;;4.83;2.40;;;;;;;12.15;100.00;101330.38;685443;28;868;-62
2023/07/18 01:02:06;;;;;;;4.60;2.08;;;;;;;12.12;100.00;101338.25;687090;28;1631;-62
2023/07/18 01:02:28;;;;;;;4.93;2.20;;;;;;;12.12;100.00;101331.25;688447;28;889;-62
2023/07/18 01:02:50;;;;;;;4.85;2.00;;;;;;;12.10;100.00;101335.59;690150;28;1304;-62
2023/07/18 01:03:10;;;;;;;4.80;2.17;;;;;;;12.08;100.00;101333.00;689685;28;1492;-63
2023/07/18 01:03:31;;;;;;;5.17;2.30;;;;;;;12.06;100.00;101333.88;690757;28;801;-62
2023/07/18 01:03:53;;;;;;;5.90;2.30;;;;;;;12.04;100.00;101340.88;690608;28;718;-62
2023/07/18 01:04:13;;;;;;;6.40;2.20;;;;;;;12.04;100.00;101333.00;688885;28;4348;-62
2023/07/18 01:04:34;;;;;;;5.33;2.30;;;;;;;12.06;100.00;101328.66;690514;28;804;-62
2023/07/18 01:04:54;;;;;;;4.85;2.30;;;;;;;12.07;100.00;101330.38;690260;28;877;-62
2023/07/18 01:05:17;;;;;;;6.00;2.30;;;;;;;12.08;100.00;101333.00;689828;28;1547;-62
2023/07/18 01:05:39;;;;;;;5.50;2.22;;;;;;;12.03;100.00;101333.88;687638;28;857;-62
2023/07/18 01:05:59;;;;;;;5.38;2.47;;;;;;;12.04;100.00;101325.13;688255;28;917;-62
2023/07/18 01:06:21;;;;;;;4.80;2.43;;;;;;;12.05;100.00;101337.38;689903;28;1472;-62
2023/07/18 01:06:42;;;;;;;4.45;2.25;;;;;;;12.04;100.00;101331.25;689792;28;1014;-62
2023/07/18 01:07:03;;;;;;;4.83;2.30;;;;;;;12.01;100.00;101340.88;686658;28;1469;-62
2023/07/18 01:07:23;;;;;;;4.68;2.50;;;;;;;12.02;100.00;101335.63;688164;28;4574;-62
2023/07/18 01:07:45;;;;;;;4.82;2.25;;;;;;;12.05;100.00;101334.75;687430;28;1102;-62
2023/07/18 01:08:05;;;;;;;4.57;2.20;;;;;;;12.07;100.00;101330.38;685515;28;2100;-63
2023/07/18 01:08:26;;;;;;;4.55;2.33;;;;;;;12.07;100.00;101330.38;686564;28;866;-62
2023/07/18 01:08:46;;;;;;;4.50;2.20;;;;;;;12.05;100.00;101332.13;686504;28;861;-62
2023/07/18 01:09:08;;;;;;;4.80;2.20;;;;;;;12.02;100.00;101329.53;683903;28;1466;-62
2023/07/18 01:09:29;;;;;;;4.95;2.25;;;;;;;12.05;100.00;101333.00;685074;28;1022;-62
2023/07/18 01:09:53;;;;;;;4.88;2.40;;;;;;;12.05;100.00;101333.00;685648;28;1014;-62
2023/07/18 01:10:23;;;;;;;4.55;2.30;;;;;;;12.01;100.00;101331.25;686334;28;4395;-62
2023/07/18 01:10:43;;;;;;;5.03;2.20;;;;;;;12.04;100.00;101333.00;688161;28;1034;-62
2023/07/18 01:11:04;;;;;;;5.13;2.30;;;;;;;12.04;100.00;101336.47;685961;28;1619;-62
2023/07/18 01:11:26;;;;;;;5.22;2.30;;;;;;;12.06;100.00;101328.66;687863;28;879;-62
2023/07/18 01:11:47;;;;;;;4.60;2.10;;;;;;;12.09;100.00;101328.63;686904;28;1152;-62
2023/07/18 01:12:08;;;;;;;5.03;2.00;;;;;;;12.08;100.00;101329.50;684585;28;1619;-62
2023/07/18 01:12:29;;;;;;;4.75;2.15;;;;;;;12.07;100.00;101328.66;687033;28;916;-63
2023/07/18 01:12:54;;;;;;;4.47;2.10;;;;;;;12.06;100.00;101324.28;689772;28;995;-62
2023/07/18 01:13:17;;;;;;;3.90;2.10;;;;;;;12.06;100.00;101326.88;684183;28;4397;-62
2023/07/18 01:13:37;;;;;;;4.20;2.10;;;;;;;12.04;100.00;101325.13;685267;28;1172;-62
2023/07/18 01:13:57;;;;;;;4.33;2.27;;;;;;;12.04;100.00;101330.38;685465;28;804;-62
2023/07/18 01:14:18;;;;;;;4.93;2.28;;;;;;;12.04;100.00;101327.75;683104;28;1533;-62
2023/07/18 01:14:40;;;;;;;5.67;2.50;;;;;;;12.02;100.00;101326.91;684458;28;1039;-62
2023/07/18 01:15:00;;;;;;;4.50;2.28;;;;;;;12.01;100.00;101328.63;686629;28;1043;-62
2023/07/18 01:15:22;;;;;;;4.55;2.30;;;;;;;12.03;100.00;101323.38;687596;28;1449;-62
2023/07/18 01:15:43;;;;;;;4.75;2.30;;;;;;;12.01;100.00;101326.00;689143;28;1239;-62
2023/07/18 01:16:04;;;;;;;5.40;2.40;;;;;;;12.02;100.00;101321.66;685395;28;3258;-62
2023/07/18 01:16:26;;;;;;;4.78;2.25;;;;;;;12.02;100.00;101326.91;683641;28;4284;-62
2023/07/18 01:16:47;;;;;;;4.60;2.20;;;;;;;11.99;100.00;101326.88;688074;28;833;-62
2023/07/18 01:17:08;;;;;;;4.93;2.27;;;;;;;11.97;100.00;101324.25;683448;28;1653;-62
2023/07/18 01:17:29;;;;;;;5.15;2.30;;;;;;;11.97;100.00;101323.41;682883;28;1428;-62
2023/07/18 01:17:50;;;;;;;5.18;2.30;;;;;;;12.01;100.00;101325.16;684818;28;837;-61
2023/07/18 01:18:13;;;;;;;4.60;2.40;;;;;;;12.03;100.00;101326.00;684726;28;1500;-62
2023/07/18 01:18:33;;;;;;;4.57;2.38;;;;;;;12.03;100.00;101334.75;687469;28;999;-62
2023/07/18 01:18:54;;;;;;;4.10;2.20;;;;;;;12.03;100.00;101326.00;688123;28;983;-62
2023/07/18 01:19:14;;;;;;;4.90;2.53;;;;;;;12.02;100.00;101329.53;686781;28;4320;-62
2023/07/18 01:19:35;;;;;;;5.60;2.60;;;;;;;12.02;100.00;101325.16;690066;28;1022;-62
2023/07/18 01:19:56;;;;;;;5.18;2.60;;;;;;;12.02;100.00;101332.16;689950;28;936;-62
2023/07/18 01:20:19;;;;;;;4.28;2.58;;;;;;;12.01;100.00;101322.53;687388;28;1538;-62
2023/07/18 01:20:45;;;;;;;4.00;2.17;;;;;;;12.03;100.00;101328.63;690161;28;1922;-62
2023/07/18 01:21:09;;;;;;;5.00;2.40;;;;;;;12.03;100.00;101323.38;689665;28;1634;-62
2023/07/18 01:21:30;;;;;;;4.85;2.33;;;;;;;11.99;100.00;101329.50;689832;28;1161;-62
2023/07/18 01:21:50;;;;;;;4.57;2.42;;;;;;;11.97;100.00;101324.25;690785;28;1022;-62
2023/07/18 01:22:10;;;;;;;5.07;2.40;;;;;;;12.01;100.00;101319.91;688418;28;4633;-62
2023/07/18 01:22:32;;;;;;;5.80;2.43;;;;;;;11.99;100.00;101327.78;689945;28;770;-62
2023/07/18 01:23:00;;;;;;;4.55;2.10;;;;;;;11.99;100.00;101321.63;688037;28;2093;-62
2023/07/18 01:23:21;;;;;;;3.88;2.10;;;;;;;11.97;100.00;101326.03;686782;28;1476;-63
2023/07/18 01:23:45;;;;;;;4.85;2.25;;;;;;;11.98;100.00;101326.00;684417;28;1127;-62
2023/07/18 01:24:07;;;;;;;4.15;2.20;;;;;;;11.97;100.00;101324.25;684680;28;1625;-62
2023/07/18 01:24:27;;;;;;;4.50;2.40;;;;;;;11.97;100.00;101323.41;683228;28;1597;-62
2023/07/18 01:24:47;;;;;;;5.33;2.47;;;;;;;12.00;100.00;101326.00;682124;28;1060;-62
2023/07/18 01:25:11;;;;;;;4.53;2.17;;;;;;;11.99;100.00;101332.13;681016;28;4498;-62
2023/07/18 01:25:33;;;;;;;4.20;2.33;;;;;;;11.98;100.00;101325.16;681020;29;854;-62
2023/07/18 01:25:54;;;;;;;4.65;2.50;;;;;;;12.00;100.00;101329.50;682781;28;888;-62
2023/07/18 01:26:16;;;;;;;5.10;2.38;;;;;;;12.02;100.00;101322.53;684559;28;1714;-62
2023/07/18 01:26:37;;;;;;;4.53;2.22;;;;;;;11.99;100.00;101321.63;685967;28;1483;-62
2023/07/18 01:26:57;;;;;;;5.10;2.70;;;;;;;12.04;100.00;101318.13;687285;28;1226;-62
2023/07/18 01:27:19;;;;;;;5.60;2.80;;;;;;;12.05;100.00;101319.91;684400;28;1478;-62
2023/07/18 01:27:40;;;;;;;4.53;2.50;;;;;;;12.07;100.00;101320.78;682000;28;1582;-62
2023/07/18 01:28:01;;;;;;;4.30;2.40;;;;;;;12.06;100.00;101324.28;682161;29;794;-62
2023/07/18 01:28:21;;;;;;;4.15;2.40;;;;;;;12.05;100.00;101319.03;681145;28;4768;-62
2023/07/18 01:28:42;;;;;;;4.57;2.43;;;;;;;12.02;100.00;101319.03;686020;28;884;-62
2023/07/18 01:29:02;;;;;;;5.03;2.20;;;;;;;12.02;100.00;101316.41;685138;28;1298;-62
2023/07/18 01:29:23;;;;;;;5.20;2.40;;;;;;;12.02;100.00;101317.28;688066;28;967;-62
2023/07/18 01:29:46;;;;;;;5.13;2.50;;;;;;;12.03;100.00;101318.13;687634;28;1104;-62
2023/07/18 01:30:06;;;;;;;4.32;2.40;;;;;;;12.03;100.00;101318.13;686310;28;1544;-63
2023/07/18 01:30:30;;;;;;;4.13;2.28;;;;;;;12.01;100.00;101323.38;684343;28;1274;-62
2023/07/18 01:30:50;;;;;;;4.97;2.53;;;;;;;12.00;100.00;101318.16;685952;28;1255;-62
2023/07/18 01:31:10;;;;;;;5.10;2.30;;;;;;;12.01;100.00;101319.91;685849;28;4546;-62
2023/07/18 01:31:32;;;;;;;4.60;2.23;;;;;;;12.00;100.00;101313.78;683341;28;1373;-62
2023/07/18 01:31:52;;;;;;;4.75;2.30;;;;;;;11.99;100.00;101316.41;684868;28;1027;-62
2023/07/18 01:32:12;;;;;;;4.35;2.30;;;;;;;11.98;100.00;101319.91;683284;28;1693;-62
2023/07/18 01:32:34;;;;;;;4.50;2.30;;;;;;;11.97;100.00;101318.16;685475;28;908;-62
2023/07/18 01:32:54;;;;;;;4.35;2.22;;;;;;;11.97;100.00;101318.16;685226;28;2021;-62
2023/07/18 01:33:14;;;;;;;5.03;2.50;;;;;;;11.97;100.00;101326.03;684175;28;1470;-62
2023/07/18 01:33:35;;;;;;;4.80;2.30;;;;;;;11.98;100.00;101315.53;687850;28;841;-62
2023/07/18 01:33:55;;;;;;;4.20;2.33;;;;;;;11.99;100.00;101321.63;687646;28;1083;-62
2023/07/18 01:34:15;;;;;;;3.90;2.33;;;;;;;12.00;100.00;101318.16;683209;28;4572;-62
2023/07/18 01:34:36;;;;;;;4.90;2.35;;;;;;;11.98;100.00;101327.78;685280;28;890;-62
2023/07/18 01:34:56;;;;;;;5.00;2.40;;;;;;;11.98;100.00;101320.78;685088;28;1091;-62
2023/07/18 01:35:19;;;;;;;5.53;2.30;;;;;;;11.98;100.00;101314.69;686273;28;1520;-63
2023/07/18 01:35:40;;;;;;;5.70;2.50;;;;;;;11.98;100.00;101331.25;687574;28;792;-62
2023/07/18 01:36:01;;;;;;;5.55;2.50;;;;;;;11.96;100.00;101322.50;690278;28;826;-62
2023/07/18 01:36:22;;;;;;;5.20;2.50;;;;;;;11.92;100.00;101323.34;689033;28;1484;-62
2023/07/18 01:36:42;;;;;;;4.40;2.33;;;;;;;11.92;100.00;101321.63;692218;28;1203;-62
2023/07/18 01:37:05;;;;;;;5.00;2.40;;;;;;;11.92;100.00;101321.63;687671;28;1496;-62
2023/07/18 01:37:27;;;;;;;4.45;2.60;;;;;;;11.92;100.00;101323.34;686895;28;4238;-62
2023/07/18 01:37:48;;;;;;;4.67;2.20;;;;;;;11.91;100.00;101321.63;687567;28;939;-62
2023/07/18 01:38:08;;;;;;;4.95;2.20;;;;;;;11.90;100.00;101318.09;686670;28;1561;-63
2023/07/18 01:38:29;;;;;;;4.88;2.00;;;;;;;11.88;100.00;101319.88;686614;28;988;-63
2023/07/18 01:38:49;;;;;;;4.90;2.10;;;;;;;11.87;100.00;101323.34;685036;28;1358;-62
2023/07/18 01:39:10;;;;;;;5.27;2.13;;;;;;;11.86;100.00;101321.59;685622;28;1556;-62
2023/07/18 01:39:30;;;;;;;4.87;2.20;;;;;;;11.87;100.00;101315.50;687172;28;1113;-62
2023/07/18 01:39:50;;;;;;;4.50;2.10;;;;;;;11.89;100.00;101320.72;687420;28;979;-62
2023/07/18 01:40:13;;;;;;;4.97;2.33;;;;;;;11.91;100.00;101319.88;683269;28;4594;-62